createdAt,value
2023-09-21T00:01:07.902Z,98827.09
2023-09-21T00:03:38.680Z,98821.41
2023-09-21T00:06:06.450Z,98820.66
2023-09-21T00:08:34.017Z,98815.84
2023-09-21T00:11:02.255Z,98814.28
2023-09-21T00:13:30.212Z,98819.78
2023-09-21T00:16:03.515Z,98814.16
2023-09-21T00:18:30.880Z,98815.84
2023-09-21T00:21:02.111Z,98814.38
2023-09-21T00:23:29.003Z,98802.59
2023-09-21T00:26:01.381Z,98809.09
2023-09-21T00:28:29.392Z,98799.56
2023-09-21T00:30:58.785Z,98793.72
2023-09-21T00:33:34.267Z,98799.66
2023-09-21T00:36:01.614Z,98802.06
2023-09-21T00:38:28.625Z,98794.91
2023-09-21T00:41:00.023Z,98788.19
2023-09-21T00:43:26.718Z,98776.72
2023-09-21T00:45:55.647Z,98782.19
2023-09-21T00:48:27.046Z,98775.09
2023-09-21T00:50:56.031Z,98783.78
2023-09-21T00:53:23.796Z,98780.56
2023-09-21T00:55:59.580Z,98782.97
2023-09-21T00:58:26.963Z,98789.00
2023-09-21T01:00:55.914Z,98774.34
2023-09-21T01:03:24.258Z,98785.41
2023-09-21T01:05:51.568Z,98783.06
2023-09-21T01:08:21.305Z,98785.84
2023-09-21T01:10:50.880Z,98773.09
2023-09-21T01:13:19.668Z,98771.16
2023-09-21T01:16:12.288Z,98781.81
2023-09-21T01:18:43.189Z,98766.31
2023-09-21T01:21:11.531Z,98761.97
2023-09-21T01:23:47.100Z,98759.59
2023-09-21T01:26:17.805Z,98759.22
2023-09-21T01:28:47.363Z,98762.81
2023-09-21T01:31:14.600Z,98760.03
2023-09-21T01:33:43.383Z,98762.41
2023-09-21T01:36:12.139Z,98760.03
2023-09-21T01:38:47.149Z,98755.69
2023-09-21T01:41:16.045Z,98757.81
2023-09-21T01:43:43.116Z,98753.94
2023-09-21T01:46:10.463Z,98740.06
2023-09-21T01:48:38.192Z,98738.13
2023-09-21T01:51:06.825Z,98739.28
2023-09-21T01:53:34.071Z,98728.22
2023-09-21T01:56:01.083Z,98732.16
2023-09-21T01:58:27.695Z,98729.84
2023-09-21T02:00:54.364Z,98725.06
2023-09-21T02:03:29.555Z,98724.69
2023-09-21T02:05:59.533Z,98716.72
2023-09-21T02:08:27.252Z,98728.22
2023-09-21T02:10:54.147Z,98725.47
2023-09-21T02:13:21.723Z,98713.63
2023-09-21T02:15:52.491Z,98706.50
2023-09-21T02:18:20.492Z,98703.25
2023-09-21T02:20:53.791Z,98702.44
2023-09-21T02:23:23.226Z,98700.38
2023-09-21T02:25:50.162Z,98688.91
2023-09-21T02:28:16.986Z,98688.16
2023-09-21T02:30:48.745Z,98688.09
2023-09-21T02:33:19.171Z,98680.47
2023-09-21T02:35:48.781Z,98674.53
2023-09-21T02:38:18.280Z,98676.13
2023-09-21T02:40:44.860Z,98670.47
2023-09-21T02:43:11.406Z,98670.41
2023-09-21T02:45:38.352Z,98663.75
2023-09-21T02:48:06.556Z,98658.66
2023-09-21T02:50:33.614Z,98670.59
2023-09-21T02:53:11.895Z,98661.47
2023-09-21T02:55:40.157Z,98650.78
2023-09-21T02:58:12.265Z,98646.41
2023-09-21T03:00:46.741Z,98644.41
2023-09-21T03:03:16.434Z,98655.09
2023-09-21T03:05:49.571Z,98653.91
2023-09-21T03:08:17.876Z,98668.16
2023-09-21T03:10:46.510Z,98656.22
2023-09-21T03:13:20.596Z,98657.72
2023-09-21T03:15:49.845Z,98664.09
2023-09-21T03:18:17.988Z,98653.00
2023-09-21T03:20:45.741Z,98654.66
2023-09-21T03:23:14.542Z,98644.81
2023-09-21T03:25:44.312Z,98639.72
2023-09-21T03:28:16.776Z,98638.19
2023-09-21T03:30:45.095Z,98631.91
2023-09-21T03:33:12.545Z,98631.94
2023-09-21T03:35:39.745Z,98625.19
2023-09-21T03:38:07.573Z,98624.75
2023-09-21T03:40:34.899Z,98621.50
2023-09-21T03:43:02.109Z,98622.66
2023-09-21T03:45:28.752Z,98614.25
2023-09-21T03:47:56.602Z,98618.59
2023-09-21T03:50:26.685Z,98609.53
2023-09-21T03:52:56.181Z,98602.88
2023-09-21T03:55:23.278Z,98608.91
2023-09-21T03:57:49.911Z,98607.41
2023-09-21T04:00:27.520Z,98610.28
2023-09-21T04:02:55.165Z,98593.38
2023-09-21T04:05:25.785Z,98608.44
2023-09-21T04:07:52.919Z,98597.34
2023-09-21T04:10:19.546Z,98596.53
2023-09-21T04:12:46.105Z,98599.38
2023-09-21T04:15:13.261Z,98602.19
2023-09-21T04:17:43.390Z,98603.03
2023-09-21T04:20:14.322Z,98598.59
2023-09-21T04:22:42.438Z,98602.06
2023-09-21T04:25:11.180Z,98586.13
2023-09-21T04:27:40.297Z,98585.31
2023-09-21T04:30:09.637Z,98593.22
2023-09-21T04:32:40.133Z,98594.72
2023-09-21T04:35:07.471Z,98592.75
2023-09-21T04:37:35.409Z,98585.19
2023-09-21T04:40:12.976Z,98588.34
2023-09-21T04:42:41.321Z,98586.78
2023-09-21T04:45:12.473Z,98589.97
2023-09-21T04:47:50.816Z,98584.38
2023-09-21T04:50:18.748Z,98580.81
2023-09-21T04:52:46.650Z,98589.09
2023-09-21T04:55:17.237Z,98588.22
2023-09-21T04:57:44.942Z,98585.06
2023-09-21T05:00:17.411Z,98577.88
2023-09-21T05:02:45.002Z,98579.06
2023-09-21T05:05:12.564Z,98578.59
2023-09-21T05:07:39.252Z,98580.09
2023-09-21T05:10:08.322Z,98580.06
2023-09-21T05:12:35.631Z,98578.41
2023-09-21T05:17:34.604Z,98566.50
2023-09-21T05:20:01.255Z,98583.41
2023-09-21T05:22:27.835Z,98579.47
2023-09-21T05:24:54.413Z,98571.22
2023-09-21T05:27:22.455Z,98570.06
2023-09-21T05:29:49.170Z,98568.31
2023-09-21T05:32:16.435Z,98563.03
2023-09-21T05:34:43.234Z,98562.13
2023-09-21T05:37:09.939Z,98563.22
2023-09-21T05:39:37.007Z,98557.00
2023-09-21T05:42:05.622Z,98551.47
2023-09-21T05:44:32.244Z,98544.97
2023-09-21T05:46:58.820Z,98538.03
2023-09-21T05:49:25.400Z,98548.00
2023-09-21T05:51:57.492Z,98553.59
2023-09-21T05:54:25.286Z,98555.28
2023-09-21T05:56:53.276Z,98551.06
2023-09-21T05:59:20.515Z,98546.94
2023-09-21T06:01:47.321Z,98551.47
2023-09-21T06:04:14.084Z,98544.22
2023-09-21T06:06:40.760Z,98559.13
2023-09-21T06:09:09.066Z,98560.13
2023-09-21T06:11:35.643Z,98563.22
2023-09-21T06:14:03.681Z,98569.13
2023-09-21T06:16:30.462Z,98566.31
2023-09-21T06:18:57.134Z,98563.75
2023-09-21T06:21:23.815Z,98551.47
2023-09-21T06:23:51.746Z,98556.88
2023-09-21T06:26:19.856Z,98547.69
2023-09-21T06:28:49.928Z,98537.72
2023-09-21T06:31:17.613Z,98545.22
2023-09-21T06:33:44.281Z,98544.59
2023-09-21T06:36:21.656Z,98529.16
2023-09-21T06:38:48.785Z,98526.09
2023-09-21T06:41:15.776Z,98529.28
2023-09-21T06:43:45.781Z,98525.88
2023-09-21T06:46:13.609Z,98525.41
2023-09-21T06:48:43.280Z,98529.59
2023-09-21T06:51:10.176Z,98533.00
2023-09-21T06:53:37.508Z,98536.63
2023-09-21T06:56:05.085Z,98542.00
2023-09-21T06:58:36.684Z,98528.28
2023-09-21T07:01:06.500Z,98535.69
2023-09-21T07:03:36.109Z,98532.88
2023-09-21T07:06:03.021Z,98532.63
2023-09-21T07:08:29.681Z,98540.78
2023-09-21T07:10:56.516Z,98534.72
2023-09-21T07:13:23.110Z,98543.50
2023-09-21T07:15:50.129Z,98553.06
2023-09-21T07:18:17.534Z,98553.72
2023-09-21T07:20:44.579Z,98557.47
2023-09-21T07:23:11.444Z,98553.22
2023-09-21T07:25:38.708Z,98548.16
2023-09-21T07:28:06.023Z,98549.25
2023-09-21T07:30:34.642Z,98553.50
2023-09-21T07:33:02.243Z,98561.09
2023-09-21T07:35:29.688Z,98551.81
2023-09-21T07:37:57.113Z,98549.00
2023-09-21T07:40:24.501Z,98540.91
2023-09-21T07:42:52.400Z,98545.81
2023-09-21T07:45:20.845Z,98541.81
2023-09-21T07:47:48.098Z,98533.03
2023-09-21T07:50:14.965Z,98533.13
2023-09-21T07:52:41.609Z,98541.25
2023-09-21T07:55:10.049Z,98536.91
2023-09-21T07:57:41.129Z,98547.03
2023-09-21T08:00:11.896Z,98537.47
2023-09-21T08:02:38.562Z,98541.97
2023-09-21T08:05:11.341Z,98540.69
2023-09-21T08:07:38.381Z,98541.94
2023-09-21T08:10:06.109Z,98534.84
2023-09-21T08:12:32.962Z,98539.63
2023-09-21T08:15:01.111Z,98539.72
2023-09-21T08:17:31.651Z,98528.66
2023-09-21T08:19:58.469Z,98530.72
2023-09-21T08:22:27.779Z,98535.41
2023-09-21T08:24:54.599Z,98532.84
2023-09-21T08:27:23.745Z,98534.75
2023-09-21T08:29:51.320Z,98535.78
2023-09-21T08:32:18.646Z,98528.06
2023-09-21T08:34:45.481Z,98529.34
2023-09-21T08:37:12.414Z,98527.63
2023-09-21T08:39:39.378Z,98523.94
2023-09-21T08:42:06.416Z,98515.84
2023-09-21T08:44:33.596Z,98516.03
2023-09-21T08:47:01.210Z,98518.00
2023-09-21T08:49:28.425Z,98517.31
2023-09-21T08:51:57.976Z,98503.56
2023-09-21T08:54:25.189Z,98500.69
2023-09-21T08:56:57.147Z,98492.56
2023-09-21T08:59:25.935Z,98500.72
2023-09-21T09:01:53.093Z,98505.63
2023-09-21T09:04:21.227Z,98504.38
2023-09-21T09:06:48.826Z,98507.00
2023-09-21T09:09:17.248Z,98510.88
2023-09-21T09:11:46.357Z,98505.84
2023-09-21T09:14:15.686Z,98497.53
2023-09-21T09:16:42.750Z,98497.13
2023-09-21T09:19:10.672Z,98489.97
2023-09-21T09:21:37.943Z,98486.38
2023-09-21T09:24:05.997Z,98493.25
2023-09-21T09:26:32.679Z,98480.34
2023-09-21T09:29:15.254Z,98503.19
2023-09-21T09:31:43.277Z,98492.59
2023-09-21T09:34:13.607Z,98488.81
2023-09-21T09:36:42.522Z,98489.13
2023-09-21T09:39:09.701Z,98487.06
2023-09-21T09:41:36.942Z,98482.44
2023-09-21T09:44:07.734Z,98472.78
2023-09-21T09:46:36.715Z,98467.00
2023-09-21T09:49:04.340Z,98467.91
2023-09-21T09:51:46.691Z,98456.38
2023-09-21T09:54:14.352Z,98459.22
2023-09-21T09:56:44.407Z,98455.59
2023-09-21T09:59:12.906Z,98458.03
2023-09-21T10:01:40.644Z,98446.59
2023-09-21T10:04:08.763Z,98448.28
2023-09-21T10:06:37.897Z,98434.66
2023-09-21T10:09:10.348Z,98444.78
2023-09-21T10:11:40.790Z,98439.69
2023-09-21T10:14:08.493Z,98439.25
2023-09-21T10:16:40.218Z,98438.22
2023-09-21T10:19:17.385Z,98431.94
2023-09-21T10:21:46.847Z,98433.50
2023-09-21T10:24:13.574Z,98433.31
2023-09-21T10:26:45.219Z,98433.44
2023-09-21T10:29:13.635Z,98423.03
2023-09-21T10:31:45.101Z,98426.84
2023-09-21T10:34:20.336Z,98415.69
2023-09-21T10:36:53.473Z,98406.44
2023-09-21T10:39:41.364Z,98399.38
2023-09-21T10:42:08.184Z,98393.19
2023-09-21T10:44:53.855Z,98399.56
2023-09-21T10:47:51.157Z,98393.81
2023-09-21T10:50:24.436Z,98386.63
2023-09-21T10:52:53.060Z,98379.63
2023-09-21T10:55:22.115Z,98380.53
2023-09-21T10:57:50.778Z,98367.06
2023-09-21T11:00:19.244Z,98359.66
2023-09-21T11:02:51.115Z,98357.63
2023-09-21T11:05:20.409Z,98357.16
2023-09-21T11:07:49.190Z,98356.25
2023-09-21T11:10:17.842Z,98349.34
2023-09-21T11:12:46.431Z,98338.63
2023-09-21T11:15:15.403Z,98344.53
2023-09-21T11:17:44.409Z,98345.13
2023-09-21T11:20:16.584Z,98344.78
2023-09-21T11:22:49.453Z,98347.44
2023-09-21T11:25:18.480Z,98348.81
2023-09-21T11:27:45.235Z,98341.69
2023-09-21T11:30:14.441Z,98348.56
2023-09-21T11:32:47.672Z,98339.50
2023-09-21T11:35:18.685Z,98334.63
2023-09-21T11:37:47.644Z,98341.72
2023-09-21T11:40:15.874Z,98333.38
2023-09-21T11:42:47.215Z,98334.41
2023-09-21T11:45:17.699Z,98338.91
2023-09-21T11:47:56.518Z,98332.34
2023-09-21T11:50:33.156Z,98319.06
2023-09-21T11:53:00.326Z,98310.25
2023-09-21T11:55:31.075Z,98316.94
2023-09-21T11:58:08.752Z,98312.59
2023-09-21T12:00:49.096Z,98307.84
2023-09-21T12:03:19.396Z,98315.97
2023-09-21T12:05:46.446Z,98310.06
2023-09-21T12:08:17.878Z,98309.03
2023-09-21T12:10:48.607Z,98312.88
2023-09-21T12:13:15.834Z,98301.22
2023-09-21T12:15:43.233Z,98307.19
2023-09-21T12:18:15.903Z,98300.34
2023-09-21T12:20:46.320Z,98301.63
2023-09-21T12:23:13.892Z,98286.88
2023-09-21T12:25:41.217Z,98293.59
2023-09-21T12:28:10.306Z,98285.31
2023-09-21T12:30:39.203Z,98294.13
2023-09-21T12:33:07.775Z,98283.06
2023-09-21T12:35:34.892Z,98272.22
2023-09-21T12:38:01.509Z,98287.97
2023-09-21T12:40:28.716Z,98271.72
2023-09-21T12:42:55.885Z,98275.28
2023-09-21T12:45:22.733Z,98279.94
2023-09-21T12:47:49.563Z,98273.47
2023-09-21T12:50:17.476Z,98276.59
2023-09-21T12:52:44.669Z,98274.03
2023-09-21T12:55:12.041Z,98271.44
2023-09-21T12:57:42.140Z,98267.59
2023-09-21T13:00:20.182Z,98273.00
2023-09-21T13:02:47.463Z,98262.97
2023-09-21T13:05:14.623Z,98271.00
2023-09-21T13:07:45.575Z,98267.13
2023-09-21T13:10:16.098Z,98261.16
2023-09-21T13:12:43.468Z,98254.72
2023-09-21T13:15:10.507Z,98259.34
2023-09-21T13:17:38.047Z,98262.16
2023-09-21T13:20:06.008Z,98259.34
2023-09-21T13:22:36.185Z,98254.94
2023-09-21T13:25:03.154Z,98258.81
2023-09-21T13:27:32.616Z,98260.06
2023-09-21T13:29:59.148Z,98255.97
2023-09-21T13:32:26.626Z,98262.16
2023-09-21T13:34:55.430Z,98260.13
2023-09-21T13:37:22.159Z,98255.94
2023-09-21T13:39:49.328Z,98248.22
2023-09-21T13:42:16.295Z,98257.00
2023-09-21T13:44:42.904Z,98250.00
2023-09-21T13:47:09.540Z,98250.28
2023-09-21T13:49:36.482Z,98250.75
2023-09-21T13:52:03.951Z,98249.44
2023-09-21T13:54:31.238Z,98249.41
2023-09-21T13:56:57.920Z,98244.53
2023-09-21T13:59:24.583Z,98257.34
2023-09-21T14:01:51.357Z,98258.41
2023-09-21T14:04:18.314Z,98250.16
2023-09-21T14:06:45.248Z,98238.81
2023-09-21T14:09:11.980Z,98240.34
2023-09-21T14:11:38.625Z,98245.19
2023-09-21T14:14:06.177Z,98237.63
2023-09-21T14:16:32.975Z,98239.94
2023-09-21T14:18:59.703Z,98239.47
2023-09-21T14:21:27.328Z,98240.97
2023-09-21T14:23:53.971Z,98228.56
2023-09-21T14:26:20.834Z,98231.13
2023-09-21T14:28:47.538Z,98218.28
2023-09-21T14:31:14.351Z,98228.03
2023-09-21T14:33:41.141Z,98235.44
2023-09-21T14:36:09.829Z,98226.88
2023-09-21T14:38:36.576Z,98224.09
2023-09-21T14:41:03.957Z,98220.69
2023-09-21T14:43:30.561Z,98227.56
2023-09-21T14:45:57.234Z,98224.63
2023-09-21T14:48:24.219Z,98220.06
2023-09-21T14:50:50.822Z,98213.69
2023-09-21T14:53:17.417Z,98212.44
2023-09-21T14:55:44.243Z,98213.69
2023-09-21T14:58:11.902Z,98214.22
2023-09-21T15:00:39.422Z,98223.97
2023-09-21T15:03:06.295Z,98215.09
2023-09-21T15:05:32.998Z,98202.00
2023-09-21T15:08:12.757Z,98205.31
2023-09-21T15:10:40.498Z,98199.84
2023-09-21T15:13:07.128Z,98200.84
2023-09-21T15:15:33.770Z,98204.94
2023-09-21T15:18:00.632Z,98193.63
2023-09-21T15:20:28.178Z,98199.53
2023-09-21T15:22:55.072Z,98209.34
2023-09-21T15:25:22.021Z,98211.66
2023-09-21T15:27:48.622Z,98199.28
2023-09-21T15:30:15.953Z,98206.25
2023-09-21T15:32:43.025Z,98210.69
2023-09-21T15:35:12.544Z,98199.28
2023-09-21T15:37:39.071Z,98202.31
2023-09-21T15:40:06.379Z,98208.16
2023-09-21T15:42:33.255Z,98195.25
2023-09-21T15:45:00.122Z,98202.72
2023-09-21T15:47:26.992Z,98202.94
2023-09-21T15:49:53.862Z,98203.66
2023-09-21T15:52:20.591Z,98194.91
2023-09-21T15:54:47.595Z,98209.47
2023-09-21T15:57:14.566Z,98205.72
2023-09-21T15:59:41.875Z,98203.00
2023-09-21T16:02:10.511Z,98197.03
2023-09-21T16:04:37.827Z,98199.25
2023-09-21T16:07:05.177Z,98204.88
2023-09-21T16:09:31.948Z,98194.22
2023-09-21T16:11:58.765Z,98198.00
2023-09-21T16:14:25.630Z,98201.78
2023-09-21T16:16:52.453Z,98191.50
2023-09-21T16:19:19.246Z,98202.81
2023-09-21T16:21:45.890Z,98192.69
2023-09-21T16:24:13.052Z,98185.13
2023-09-21T16:26:39.804Z,98196.47
2023-09-21T16:29:07.222Z,98195.00
2023-09-21T16:31:34.049Z,98192.78
2023-09-21T16:34:00.746Z,98187.25
2023-09-21T16:36:27.545Z,98183.75
2023-09-21T16:38:54.401Z,98187.44
2023-09-21T16:41:21.363Z,98182.16
2023-09-21T16:43:48.377Z,98178.63
2023-09-21T16:46:39.587Z,98190.47
2023-09-21T16:49:03.155Z,98182.56
2023-09-21T16:51:29.792Z,98191.66
2023-09-21T16:53:59.188Z,98182.41
2023-09-21T16:56:25.815Z,98192.28
2023-09-21T16:58:54.144Z,98185.38
2023-09-21T17:01:20.887Z,98185.16
2023-09-21T17:03:47.752Z,98189.09
2023-09-21T17:06:14.765Z,98179.75
2023-09-21T17:08:41.408Z,98184.94
2023-09-21T17:11:08.018Z,98188.44
2023-09-21T17:13:34.615Z,98183.81
2023-09-21T17:16:01.263Z,98191.63
2023-09-21T17:18:27.930Z,98191.19
2023-09-21T17:20:54.640Z,98191.19
2023-09-21T17:23:21.228Z,98191.69
2023-09-21T17:25:48.699Z,98189.69
2023-09-21T17:28:15.444Z,98200.03
2023-09-21T17:30:42.457Z,98197.22
2023-09-21T17:33:09.218Z,98204.09
2023-09-21T17:35:37.286Z,98199.28
2023-09-21T17:38:04.205Z,98198.19
2023-09-21T17:40:30.933Z,98198.03
2023-09-21T17:42:57.511Z,98210.66
2023-09-21T17:45:24.137Z,98204.56
2023-09-21T17:47:50.979Z,98210.34
2023-09-21T17:50:18.063Z,98215.19
2023-09-21T17:52:44.758Z,98211.75
2023-09-21T17:55:12.077Z,98208.34
2023-09-21T17:57:38.867Z,98216.28
2023-09-21T18:00:07.483Z,98214.44
2023-09-21T18:02:37.368Z,98209.59
2023-09-21T18:05:05.180Z,98212.25
2023-09-21T18:07:32.326Z,98208.19
2023-09-21T18:09:58.885Z,98202.91
2023-09-21T18:12:25.964Z,98215.06
2023-09-21T18:14:52.611Z,98212.25
2023-09-21T18:17:19.209Z,98215.06
2023-09-21T18:19:45.775Z,98219.25
2023-09-21T18:22:13.438Z,98221.88
2023-09-21T18:24:40.139Z,98228.28
2023-09-21T18:27:06.846Z,98218.63
2023-09-21T18:29:34.064Z,98230.59
2023-09-21T18:32:01.625Z,98225.75
2023-09-21T18:34:28.408Z,98228.41
2023-09-21T18:36:54.983Z,98229.00
2023-09-21T18:39:21.638Z,98233.53
2023-09-21T18:41:48.755Z,98240.53
2023-09-21T18:44:15.323Z,98234.94
2023-09-21T18:46:42.568Z,98241.44
2023-09-21T18:49:09.286Z,98240.47
2023-09-21T18:51:36.031Z,98234.22
2023-09-21T18:54:02.750Z,98235.19
2023-09-21T18:56:29.640Z,98228.59
2023-09-21T18:58:57.634Z,98232.00
2023-09-21T19:01:25.243Z,98227.50
2023-09-21T19:03:54.883Z,98236.03
2023-09-21T19:06:25.423Z,98232.44
2023-09-21T19:08:52.852Z,98230.06
2023-09-21T19:11:20.579Z,98240.34
2023-09-21T19:13:47.650Z,98233.47
2023-09-21T19:16:14.737Z,98232.84
2023-09-21T19:18:41.776Z,98229.94
2023-09-21T19:21:09.719Z,98228.63
2023-09-21T19:23:36.893Z,98224.72
2023-09-21T19:26:04.800Z,98221.88
2023-09-21T19:28:32.396Z,98224.22
2023-09-21T19:31:00.656Z,98212.25
2023-09-21T19:33:28.215Z,98219.28
2023-09-21T19:35:55.637Z,98221.56
2023-09-21T19:38:22.924Z,98213.63
2023-09-21T19:40:49.666Z,98215.28
2023-09-21T19:43:16.688Z,98208.47
2023-09-21T19:45:43.482Z,98207.34
2023-09-21T19:48:10.302Z,98201.41
2023-09-21T19:50:37.409Z,98198.47
2023-09-21T19:53:05.627Z,98195.00
2023-09-21T19:55:32.556Z,98192.78
2023-09-21T19:57:59.481Z,98179.75
2023-09-21T20:00:26.627Z,98171.16
2023-09-21T20:02:53.392Z,98169.75
2023-09-21T20:05:20.431Z,98177.94
2023-09-21T20:07:47.427Z,98168.91
2023-09-21T20:10:14.112Z,98166.84
2023-09-21T20:12:40.927Z,98154.78
2023-09-21T20:15:09.978Z,98156.28
2023-09-21T20:17:36.818Z,98155.66
2023-09-21T20:20:03.779Z,98155.78
2023-09-21T20:22:32.429Z,98162.00
2023-09-21T20:24:59.102Z,98164.41
2023-09-21T20:27:25.862Z,98169.28
2023-09-21T20:29:52.533Z,98164.53
2023-09-21T20:32:19.231Z,98167.31
2023-09-21T20:34:45.794Z,98161.72
2023-09-21T20:37:12.501Z,98165.00
2023-09-21T20:39:39.109Z,98164.19
2023-09-21T20:42:05.802Z,98163.78
2023-09-21T20:44:33.869Z,98164.25
2023-09-21T20:47:00.942Z,98169.63
2023-09-21T20:49:28.975Z,98164.03
2023-09-21T20:51:55.602Z,98172.19
2023-09-21T20:54:23.843Z,98168.50
2023-09-21T20:56:51.467Z,98159.56
2023-09-21T20:59:18.090Z,98155.34
2023-09-21T21:01:44.836Z,98150.63
2023-09-21T21:04:12.150Z,98152.53
2023-09-21T21:06:38.947Z,98148.56
2023-09-21T21:09:06.528Z,98148.13
2023-09-21T21:11:33.430Z,98140.22
2023-09-21T21:14:00.748Z,98137.28
2023-09-21T21:16:28.707Z,98138.06
2023-09-21T21:18:55.394Z,98131.13
2023-09-21T21:21:22.056Z,98130.03
2023-09-21T21:23:48.656Z,98135.06
2023-09-21T21:26:15.236Z,98123.25
2023-09-21T21:28:42.123Z,98112.75
2023-09-21T21:31:08.814Z,98124.94
2023-09-21T21:33:35.468Z,98118.47
2023-09-21T21:36:02.690Z,98114.44
2023-09-21T21:38:29.286Z,98107.66
2023-09-21T21:40:55.956Z,98116.59
2023-09-21T21:43:22.609Z,98107.00
2023-09-21T21:45:49.457Z,98105.28
2023-09-21T21:48:16.191Z,98104.09
2023-09-21T21:50:43.024Z,98103.44
2023-09-21T21:53:09.629Z,98103.31
2023-09-21T21:55:37.008Z,98096.81
2023-09-21T21:58:03.745Z,98093.38
2023-09-21T22:00:32.823Z,98089.69
2023-09-21T22:02:59.972Z,98081.31
2023-09-21T22:05:30.344Z,98079.41
2023-09-21T22:07:58.348Z,98081.53
2023-09-21T22:10:25.383Z,98067.59
2023-09-21T22:12:53.868Z,98077.47
2023-09-21T22:15:20.957Z,98070.22
2023-09-21T22:17:47.781Z,98082.25
2023-09-21T22:20:17.256Z,98070.41
2023-09-21T22:22:47.199Z,98060.16
2023-09-21T22:25:14.563Z,98056.38
2023-09-21T22:27:41.381Z,98054.47
2023-09-21T22:30:10.676Z,98058.22
2023-09-21T22:32:38.316Z,98063.41
2023-09-21T22:35:06.418Z,98054.31
2023-09-21T22:37:35.556Z,98057.25
2023-09-21T22:40:04.918Z,98057.59
2023-09-21T22:42:46.568Z,98058.56
2023-09-21T22:45:15.275Z,98052.19
2023-09-21T22:47:43.884Z,98053.81
2023-09-21T22:50:15.005Z,98057.09
2023-09-21T22:52:44.268Z,98052.06
2023-09-21T22:55:10.935Z,98049.81
2023-09-21T22:57:37.560Z,98041.59
2023-09-21T23:00:08.191Z,98034.47
2023-09-21T23:02:34.755Z,98031.56
2023-09-21T23:05:01.986Z,98036.09
2023-09-21T23:07:28.690Z,98033.16
2023-09-21T23:09:55.602Z,98035.81
2023-09-21T23:12:22.143Z,98033.09
2023-09-21T23:14:48.739Z,98031.97
2023-09-21T23:17:16.029Z,98028.78
2023-09-21T23:19:42.609Z,98032.31
2023-09-21T23:22:09.175Z,98033.03
2023-09-21T23:24:35.783Z,98036.66
2023-09-21T23:27:05.714Z,98038.97
2023-09-21T23:29:32.423Z,98022.38
2023-09-21T23:31:58.949Z,98028.97
2023-09-21T23:34:26.775Z,98028.31
2023-09-21T23:36:53.579Z,98026.72
2023-09-21T23:39:20.547Z,98031.09
2023-09-21T23:41:47.112Z,98019.38
2023-09-21T23:44:15.178Z,98020.84
2023-09-21T23:46:42.251Z,98028.06
2023-09-21T23:49:09.381Z,98031.31
2023-09-21T23:51:36.045Z,98034.50
2023-09-21T23:54:07.397Z,98030.59
2023-09-21T23:56:34.008Z,98027.28
2023-09-21T23:59:00.617Z,98018.59
